Time;durP1;ratioP1;P1;durP2;ratioP2;P2;SDS_P1;SDS_P2;PMS_P1;PMS_P2;Temp;Humidity;BMP_temperature;BMP_pressure;BME280_temperature;BME280_humidity;BME280_pressure;Samples;Min_cycle;Max_cycle;Signal;HPM_P1;HPM_P2
2022/08/28 00:00:18;;;;;;;23.35;19.35;;;563.80;2432.00;;;;;;5068178;28;20045;-82
2022/08/28 00:02:45;;;;;;;25.35;20.40;;;563.80;2432.00;;;;;;5066198;28;20029;-81
2022/08/28 00:05:13;;;;;;;24.98;20.15;;;563.70;2432.00;;;;;;5033216;28;20030;-81
2022/08/28 00:07:39;;;;;;;25.25;18.70;;;563.60;2432.00;;;;;;5034574;28;20479;-80
2022/08/28 00:10:07;;;;;;;23.80;19.77;;;563.90;2432.00;;;;;;5068863;28;20040;-80
2022/08/28 00:12:34;;;;;;;22.90;19.55;;;563.80;2432.00;;;;;;5036164;28;20029;-81
2022/08/28 00:15:00;;;;;;;26.48;20.88;;;563.80;2432.00;;;;;;5064798;28;20040;-81
2022/08/28 00:17:25;;;;;;;22.38;18.10;;;563.80;2432.00;;;;;;5064463;28;20025;-81
2022/08/28 00:19:51;;;;;;;29.48;19.17;;;564.00;2432.00;;;;;;5039492;28;20048;-81
2022/08/28 00:22:17;;;;;;;28.38;20.27;;;563.90;2432.00;;;;;;5046550;28;20053;-80
2022/08/28 00:24:44;;;;;;;23.02;20.38;;;563.80;2432.00;;;;;;5036522;28;20467;-81
2022/08/28 00:29:54;;;;;;;26.13;19.75;;;563.70;2432.00;;;;;;5048887;28;20497;-82
2022/08/28 00:32:24;;;;;;;23.27;18.60;;;563.70;2432.00;;;;;;5040384;28;20025;-81
2022/08/28 00:34:50;;;;;;;24.50;20.50;;;563.80;2432.00;;;;;;5040939;28;20132;-80
2022/08/28 00:37:16;;;;;;;28.95;20.95;;;563.50;2432.00;;;;;;5039579;28;20044;-81
2022/08/28 00:39:42;;;;;;;24.48;21.60;;;563.60;2432.00;;;;;;5041364;28;20029;-81
2022/08/28 00:42:09;;;;;;;22.50;20.10;;;563.60;2432.00;;;;;;5039139;28;20076;-82
2022/08/28 00:44:35;;;;;;;22.40;20.00;;;564.00;2432.00;;;;;;5036733;28;20049;-81
2022/08/28 00:47:01;;;;;;;22.33;19.55;;;563.60;2432.00;;;;;;5038917;28;20021;-81
2022/08/28 00:49:29;;;;;;;26.02;19.33;;;;;;;;;;5072514;28;20029;-81
2022/08/28 00:52:11;;;;;;;24.67;20.77;;;;;;;;;;5039565;28;20025;-81
2022/08/28 00:54:43;;;;;;;23.83;20.45;;;;;;;;;;5036909;28;20105;-81
2022/08/28 00:57:14;;;;;;;22.77;19.83;;;563.40;2432.00;;;;;;5037441;28;20030;-79
2022/08/28 00:59:40;;;;;;;23.48;19.85;;;563.30;2432.00;;;;;;5035575;28;20052;-81
2022/08/28 01:02:07;;;;;;;25.38;20.58;;;;;;;;;;5070825;28;20455;-80
2022/08/28 01:04:33;;;;;;;23.02;20.10;;;;;;;;;;5038687;28;20029;-81
2022/08/28 01:07:01;;;;;;;24.67;20.40;;;;;;;;;;5035542;28;20021;-81
2022/08/28 01:09:30;;;;;;;22.58;20.27;;;;;;;;;;5036405;28;20052;-81
2022/08/28 01:12:00;;;;;;;29.05;20.92;;;;;;;;;;5039425;28;20112;-82
2022/08/28 01:14:27;;;;;;;25.88;18.95;;;;;;;;;;5037237;28;20032;-81
2022/08/28 01:16:54;;;;;;;21.63;19.38;;;;;;;;;;5036876;28;20033;-80
2022/08/28 01:19:51;;;;;;;22.83;19.25;;;;;;;;;;5040242;28;20075;-81
2022/08/28 01:22:38;;;;;;;26.02;19.48;;;;;;;;;;5038188;28;20025;-81
2022/08/28 01:25:24;;;;;;;24.02;19.17;;;;;;;;;;5037613;28;20471;-81
2022/08/28 01:27:50;;;;;;;21.85;18.20;;;;;;;;;;5034124;28;20030;-81
2022/08/28 01:30:18;;;;;;;22.45;19.85;;;;;;;;;;5035660;28;20021;-80
2022/08/28 01:32:48;;;;;;;23.90;18.80;;;;;;;;;;5039468;28;20051;-80
2022/08/28 01:35:17;;;;;;;22.63;19.00;;;;;;;;;;5035100;28;20441;-81
2022/08/28 01:37:43;;;;;;;23.73;20.08;;;;;;;;;;5038346;28;20101;-81
2022/08/28 01:40:10;;;;;;;23.63;20.17;;;;;;;;;;5042280;28;20044;-80
2022/08/28 01:42:40;;;;;;;24.17;20.52;;;;;;;;;;5040850;28;20024;-80
2022/08/28 01:45:10;;;;;;;26.90;20.23;;;538.50;2406.40;;;;;;5039414;28;20033;-81
2022/08/28 01:47:37;;;;;;;23.25;20.10;;;538.30;2406.40;;;;;;5038839;28;20116;-81
2022/08/28 01:50:05;;;;;;;33.10;21.95;;;538.50;2406.40;;;;;;5037450;28;20094;-81
2022/08/28 01:52:32;;;;;;;22.42;20.23;;;538.40;2406.40;;;;;;5035160;28;20037;-81
2022/08/28 01:54:58;;;;;;;26.20;20.75;;;538.50;2406.40;;;;;;5067448;28;20100;-80
2022/08/28 01:57:24;;;;;;;28.33;19.67;;;538.50;2406.40;;;;;;5067344;28;20036;-81
2022/08/28 01:59:50;;;;;;;23.65;20.92;;;538.50;2406.40;;;;;;5068046;28;20064;-80
2022/08/28 02:02:16;;;;;;;26.20;20.38;;;538.40;2406.40;;;;;;5036141;28;20021;-80
2022/08/28 02:04:42;;;;;;;22.50;20.10;;;538.30;2406.40;;;;;;5073807;28;20111;-80
2022/08/28 02:07:08;;;;;;;23.02;19.67;;;538.30;2406.40;;;;;;5038140;28;20467;-81
2022/08/28 02:09:34;;;;;;;22.48;20.38;;;538.30;2406.40;;;;;;5037763;28;20039;-81
2022/08/28 02:12:01;;;;;;;22.75;19.80;;;538.20;2406.40;;;;;;5071283;28;20156;-81
2022/08/28 02:14:26;;;;;;;25.67;21.58;;;538.10;2406.40;;;;;;5040987;28;20368;-81
2022/08/28 02:16:52;;;;;;;25.05;20.83;;;538.20;2406.40;;;;;;5070518;28;20036;-81
2022/08/28 02:19:19;;;;;;;25.10;20.30;;;538.10;2406.40;;;;;;5040422;28;20026;-80
2022/08/28 02:21:45;;;;;;;23.35;20.90;;;538.10;2406.40;;;;;;5038261;28;20084;-80
2022/08/28 02:24:11;;;;;;;25.00;21.23;;;538.10;2406.40;;;;;;5036922;28;20032;-80
2022/08/28 02:26:37;;;;;;;24.63;20.85;;;538.00;2406.40;;;;;;5066416;28;20032;-81
2022/08/28 02:29:04;;;;;;;27.92;20.75;;;538.00;2406.40;;;;;;5072084;28;20040;-80
2022/08/28 02:31:30;;;;;;;21.27;19.08;;;538.00;2406.40;;;;;;5067267;28;20029;-81
2022/08/28 02:33:56;;;;;;;23.02;20.08;;;538.20;2406.40;;;;;;5036924;28;20025;-81
2022/08/28 02:36:22;;;;;;;21.65;18.73;;;538.30;2406.40;;;;;;5035863;28;20128;-81
2022/08/28 02:38:49;;;;;;;24.13;20.60;;;538.10;2406.40;;;;;;5068327;28;20037;-81
2022/08/28 02:41:15;;;;;;;23.13;20.10;;;538.00;2406.40;;;;;;5066270;28;20026;-80
2022/08/28 02:43:41;;;;;;;26.77;19.27;;;;;;;;;;5035084;28;20469;-80
2022/08/28 02:46:08;;;;;;;25.13;19.13;;;;;;;;;;5043537;28;20044;-80
2022/08/28 02:48:35;;;;;;;20.42;17.98;;;;;;;;;;5037505;28;20076;-81
2022/08/28 02:51:03;;;;;;;21.15;18.95;;;;;;;;;;5033945;28;20517;-81
2022/08/28 02:53:30;;;;;;;21.23;17.80;;;;;;;;;;5034736;28;20029;-79
2022/08/28 02:55:56;;;;;;;27.63;19.50;;;;;;;;;;5035920;28;20092;-81
2022/08/28 02:58:25;;;;;;;26.13;18.67;;;537.90;2406.40;;;;;;5041688;28;20029;-79
2022/08/28 03:00:52;;;;;;;24.92;19.45;;;537.80;2406.40;;;;;;5035336;28;20440;-81
2022/08/28 03:03:17;;;;;;;25.38;19.83;;;537.80;2406.40;;;;;;5069183;28;20112;-81
2022/08/28 03:05:43;;;;;;;22.73;20.23;;;;;;;;;;5066228;28;20446;-81
2022/08/28 03:08:10;;;;;;;26.02;19.95;;;;;;;;;;5032932;28;20075;-80
2022/08/28 03:10:36;;;;;;;28.40;21.63;;;537.80;2406.40;;;;;;5040156;28;20021;-81
2022/08/28 03:13:01;;;;;;;22.23;20.08;;;512.90;2380.80;;;;;;5039772;28;20466;-80
2022/08/28 03:15:27;;;;;;;23.35;20.77;;;512.90;2380.80;;;;;;5036894;28;20044;-80
2022/08/28 03:17:53;;;;;;;23.17;20.40;;;512.80;2380.80;;;;;;5035562;28;20029;-80
2022/08/28 03:20:19;;;;;;;24.63;20.92;;;512.90;2380.80;;;;;;5036040;28;20057;-80
2022/08/28 03:25:29;;;;;;;26.48;20.25;;;537.70;2406.40;;;;;;5051792;28;20036;-81
2022/08/28 03:27:55;;;;;;;24.55;21.75;;;537.70;2406.40;;;;;;5034073;28;20026;-80
2022/08/28 03:30:22;;;;;;;23.50;20.33;;;537.70;2406.40;;;;;;5038407;28;20032;-80
2022/08/28 03:32:49;;;;;;;23.80;21.13;;;537.70;2406.40;;;;;;5037778;28;20116;-79
2022/08/28 03:35:15;;;;;;;28.48;22.17;;;512.90;2380.80;;;;;;5066537;28;20049;-81
2022/08/28 03:37:42;;;;;;;24.88;20.17;;;537.60;2406.40;;;;;;5068355;28;20035;-80
2022/08/28 03:40:09;;;;;;;27.25;21.48;;;537.60;2406.40;;;;;;5034270;28;20037;-82
2022/08/28 03:42:35;;;;;;;26.17;20.88;;;537.80;2406.40;;;;;;5036459;28;20029;-80
2022/08/28 03:45:01;;;;;;;25.02;21.38;;;512.80;2380.80;;;;;;5035424;28;20463;-80
2022/08/28 03:47:27;;;;;;;24.48;20.20;;;512.70;2380.80;;;;;;5066998;28;20033;-80
2022/08/28 03:49:57;;;;;;;23.88;19.90;;;512.60;2380.80;;;;;;5037180;28;20039;-80
2022/08/28 03:52:23;;;;;;;28.25;19.73;;;512.80;2380.80;;;;;;5037545;28;20029;-81
2022/08/28 03:54:49;;;;;;;23.45;19.65;;;512.90;2380.80;;;;;;5038677;28;20057;-81
2022/08/28 03:57:18;;;;;;;25.92;22.75;;;512.90;2380.80;;;;;;5040204;28;20122;-81
2022/08/28 03:59:44;;;;;;;25.38;22.05;;;512.80;2380.80;;;;;;5072042;28;20037;-80
2022/08/28 04:02:10;;;;;;;24.40;20.05;;;512.50;2380.80;;;;;;5046829;28;20025;-76
2022/08/28 04:04:36;;;;;;;24.10;20.33;;;512.60;2380.80;;;;;;5055617;28;20024;-77
2022/08/28 04:07:02;;;;;;;23.00;19.23;;;512.40;2380.80;;;;;;5047214;28;20030;-80
2022/08/28 04:09:27;;;;;;;24.13;21.02;;;512.70;2380.80;;;;;;5033674;28;20029;-78
2022/08/28 04:11:54;;;;;;;26.92;20.65;;;512.60;2380.80;;;;;;5051314;28;20033;-78
2022/08/28 04:14:19;;;;;;;24.15;19.98;;;512.50;2380.80;;;;;;5044039;28;20031;-77
2022/08/28 04:16:45;;;;;;;22.15;18.55;;;512.50;2380.80;;;;;;5047091;28;20025;-78
2022/08/28 04:19:11;;;;;;;21.70;19.40;;;512.50;2380.80;;;;;;5054078;28;20082;-78
2022/08/28 04:21:38;;;;;;;26.80;21.45;;;512.50;2380.80;;;;;;5047659;28;20037;-79
2022/08/28 04:24:04;;;;;;;31.63;20.83;;;512.70;2380.80;;;;;;5071559;28;20544;-78
2022/08/28 04:26:35;;;;;;;22.80;20.10;;;512.60;2380.80;;;;;;5041484;28;20111;-77
2022/08/28 04:29:02;;;;;;;23.38;20.80;;;512.50;2380.80;;;;;;5071739;28;20459;-79
2022/08/28 04:31:28;;;;;;;26.65;20.20;;;512.40;2380.80;;;;;;5038565;28;20037;-79
2022/08/28 04:33:55;;;;;;;26.23;20.38;;;;;;;;;;5041303;28;20083;-80
2022/08/28 04:36:21;;;;;;;23.27;20.48;;;;;;;;;;5047836;28;20138;-80
2022/08/28 04:38:48;;;;;;;26.08;23.38;;;;;;;;;;5035663;28;20029;-79
2022/08/28 04:41:15;;;;;;;24.65;22.05;;;;;;;;;;5048034;28;20490;-78
2022/08/28 04:43:42;;;;;;;28.58;22.55;;;512.40;2380.80;;;;;;5041034;28;20028;-79
2022/08/28 04:46:11;;;;;;;23.98;21.30;;;512.20;2380.80;;;;;;5041334;28;20379;-77
2022/08/28 04:48:38;;;;;;;24.60;19.77;;;512.40;2380.80;;;;;;5035581;28;20033;-80
2022/08/28 04:51:05;;;;;;;24.42;19.63;;;512.40;2380.80;;;;;;5044382;28;20029;-80
2022/08/28 04:53:32;;;;;;;31.83;21.80;;;512.70;2380.80;;;;;;5044093;28;20371;-80
2022/08/28 04:55:59;;;;;;;30.52;21.30;;;512.70;2380.80;;;;;;5044295;28;20067;-80
2022/08/28 04:58:26;;;;;;;24.88;21.08;;;512.60;2380.80;;;;;;5041928;28;20041;-79
2022/08/28 05:00:53;;;;;;;25.27;21.15;;;512.60;2380.80;;;;;;5042909;28;20494;-80
2022/08/28 05:03:19;;;;;;;25.73;20.13;;;512.50;2380.80;;;;;;5036369;28;20053;-80
2022/08/28 05:05:47;;;;;;;25.75;23.10;;;512.80;2380.80;;;;;;5036478;28;20068;-79
2022/08/28 05:08:14;;;;;;;24.67;21.27;;;512.80;2380.80;;;;;;5038866;28;20398;-79
2022/08/28 05:10:41;;;;;;;27.00;21.02;;;512.80;2380.80;;;;;;5038647;28;20076;-79
2022/08/28 05:13:09;;;;;;;27.23;21.75;;;537.60;2406.40;;;;;;5052990;28;20045;-79
2022/08/28 05:15:39;;;;;;;27.40;21.08;;;537.70;2406.40;;;;;;5052905;28;20024;-80
2022/08/28 05:18:05;;;;;;;26.15;22.08;;;537.90;2406.40;;;;;;5038665;28;20044;-80
2022/08/28 05:20:36;;;;;;;25.73;22.23;;;537.80;2406.40;;;;;;5070771;28;20056;-80
2022/08/28 05:23:02;;;;;;;27.20;22.30;;;537.80;2406.40;;;;;;5039869;28;20459;-80
2022/08/28 05:25:28;;;;;;;23.48;20.80;;;538.00;2406.40;;;;;;5075631;28;20029;-78
2022/08/28 05:27:54;;;;;;;23.55;21.05;;;538.20;2406.40;;;;;;5042952;28;20090;-80
2022/08/28 05:30:20;;;;;;;24.75;21.40;;;538.20;2406.40;;;;;;5040385;28;20046;-79
2022/08/28 05:32:45;;;;;;;26.92;20.80;;;538.30;2406.40;;;;;;5070006;28;20060;-79
2022/08/28 05:35:11;;;;;;;24.80;20.67;;;538.40;2406.40;;;;;;5036259;28;20049;-79
2022/08/28 05:37:37;;;;;;;26.48;21.10;;;538.40;2406.40;;;;;;5041952;28;20032;-80
2022/08/28 05:40:03;;;;;;;26.60;21.80;;;538.40;2406.40;;;;;;5034599;28;20029;-80
2022/08/28 05:42:29;;;;;;;27.73;21.13;;;538.30;2406.40;;;;;;5067958;28;20055;-80
2022/08/28 05:44:57;;;;;;;23.75;19.63;;;538.00;2406.40;;;;;;5039257;28;20092;-80
2022/08/28 05:47:23;;;;;;;26.48;21.73;;;538.00;2406.40;;;;;;5041037;28;20033;-80
2022/08/28 05:49:49;;;;;;;28.20;19.20;;;538.00;2406.40;;;;;;5038148;28;20103;-80
2022/08/28 05:52:15;;;;;;;25.60;19.08;;;538.10;2406.40;;;;;;5035243;28;20067;-78
2022/08/28 05:54:42;;;;;;;21.80;19.13;;;538.10;2406.40;;;;;;5070813;28;20057;-79
2022/08/28 05:57:08;;;;;;;22.13;19.77;;;538.10;2406.40;;;;;;5045055;28;20094;-79
2022/08/28 05:59:34;;;;;;;19.88;17.63;;;538.20;2406.40;;;;;;5037561;28;20036;-80
2022/08/28 06:01:59;;;;;;;21.67;19.38;;;538.30;2406.40;;;;;;5074899;28;20116;-80
2022/08/28 06:04:27;;;;;;;29.83;19.65;;;538.30;2406.40;;;;;;5036938;28;20027;-81
2022/08/28 06:06:53;;;;;;;27.40;19.85;;;563.50;2432.00;;;;;;5036651;28;20086;-80
2022/08/28 06:09:25;;;;;;;30.90;20.75;;;538.20;2406.40;;;;;;5042218;28;20056;-80
2022/08/28 06:11:54;;;;;;;24.52;18.70;;;538.30;2406.40;;;;;;5035408;28;20087;-80
2022/08/28 06:14:20;;;;;;;31.55;19.98;;;538.40;2406.40;;;;;;5072909;28;20030;-80
2022/08/28 06:16:49;;;;;;;27.42;19.48;;;538.50;2406.40;;;;;;5037762;28;20909;-80
2022/08/28 06:19:16;;;;;;;24.83;19.15;;;563.20;2432.00;;;;;;5036781;28;20082;-80
2022/08/28 06:21:42;;;;;;;21.52;18.77;;;563.40;2432.00;;;;;;5037872;28;20079;-80
2022/08/28 06:24:10;;;;;;;21.15;17.38;;;563.60;2432.00;;;;;;5036190;28;20402;-79
2022/08/28 06:26:36;;;;;;;24.27;17.77;;;563.60;2432.00;;;;;;5068214;28;20026;-80
2022/08/28 06:29:07;;;;;;;22.33;17.73;;;563.60;2432.00;;;;;;5040454;28;20040;-80
2022/08/28 06:31:34;;;;;;;27.17;18.10;;;563.60;2432.00;;;;;;5041395;28;20109;-80
2022/08/28 06:34:00;;;;;;;28.10;18.17;;;563.70;2432.00;;;;;;5037375;28;20059;-80
2022/08/28 06:36:28;;;;;;;26.33;17.67;;;563.70;2432.00;;;;;;5038189;28;20411;-82
2022/08/28 06:38:58;;;;;;;26.13;18.08;;;563.40;2432.00;;;;;;5069417;28;20038;-80
2022/08/28 06:41:25;;;;;;;28.60;17.67;;;563.80;2432.00;;;;;;5031666;28;20037;-80
2022/08/28 06:43:52;;;;;;;26.25;17.10;;;564.10;2432.00;;;;;;5066316;28;20029;-80
2022/08/28 06:46:17;;;;;;;20.02;17.10;;;564.10;2432.00;;;;;;5040924;28;20032;-81
2022/08/28 06:48:43;;;;;;;24.25;16.13;;;588.90;2432.00;;;;;;5038623;28;20025;-80
2022/08/28 06:51:11;;;;;;;16.95;14.40;;;589.10;2432.00;;;;;;5042555;28;20025;-81
2022/08/28 06:53:38;;;;;;;19.08;15.32;;;589.10;2432.00;;;;;;5033536;28;20508;-81
2022/08/28 06:56:08;;;;;;;21.10;16.77;;;589.20;2432.00;;;;;;5065122;28;20034;-83
2022/08/28 06:58:40;;;;;;;22.65;15.25;;;589.10;2432.00;;;;;;5066355;28;20492;-82
2022/08/28 07:01:12;;;;;;;20.33;15.68;;;589.30;2432.00;;;;;;5043138;28;20032;-81
2022/08/28 07:03:39;;;;;;;22.73;14.98;;;589.40;2432.00;;;;;;5039387;28;20387;-81
2022/08/28 07:06:06;;;;;;;20.05;16.30;;;;;;;;;;5035997;28;20033;-80
2022/08/28 07:08:34;;;;;;;21.52;16.38;;;;;;;;;;5039105;28;20033;-82
2022/08/28 07:11:14;;;;;;;20.45;16.08;;;589.70;2432.00;;;;;;5036213;28;20017;-82
2022/08/28 07:13:41;;;;;;;17.05;14.80;;;;;;;;;;5041163;28;20033;-81
2022/08/28 07:16:08;;;;;;;23.58;16.70;;;;;;;;;;5038760;28;20048;-82
2022/08/28 07:18:34;;;;;;;18.48;14.50;;;;;;;;;;5036892;28;20108;-81
2022/08/28 07:21:01;;;;;;;16.20;14.35;;;;;;;;;;5033001;28;20021;-82
2022/08/28 07:23:28;;;;;;;17.15;14.38;;;;;;;;;;5033055;28;20176;-82
2022/08/28 07:25:54;;;;;;;16.65;13.88;;;;;;;;;;5033965;28;20425;-81
2022/08/28 07:28:21;;;;;;;16.35;14.48;;;;;;;;;;5031761;28;20029;-80
2022/08/28 07:31:03;;;;;;;20.13;14.73;;;615.20;2432.00;;;;;;5032674;28;20024;-83
2022/08/28 07:33:30;;;;;;;16.40;12.88;;;;;;;;;;5039821;28;20025;-83
2022/08/28 07:35:57;;;;;;;18.58;13.73;;;;;;;;;;5041086;28;20048;-84
2022/08/28 07:38:25;;;;;;;22.10;14.30;;;;;;;;;;5043329;28;20025;-83
2022/08/28 07:40:51;;;;;;;19.05;13.88;;;;;;;;;;5039684;28;20522;-83
2022/08/28 07:46:05;;;;;;;21.88;13.38;;;;;;;;;;5041597;28;20194;-84
2022/08/28 07:48:34;;;;;;;15.77;13.23;;;640.50;2432.00;;;;;;5036143;28;20037;-82
2022/08/28 07:51:00;;;;;;;16.02;12.85;;;640.70;2432.00;;;;;;5043663;28;20032;-85
2022/08/28 07:53:26;;;;;;;19.58;13.27;;;640.80;2432.00;;;;;;5072051;28;20100;-85
2022/08/28 07:55:52;;;;;;;16.05;12.85;;;;;;;;;;5076195;28;20028;-84
2022/08/28 07:58:19;;;;;;;22.40;12.70;;;;;;;;;;5038851;28;20030;-84
2022/08/28 08:00:46;;;;;;;18.95;13.57;;;665.70;2432.00;;;;;;5043558;28;20029;-83
2022/08/28 08:03:12;;;;;;;19.75;13.20;;;;;;;;;;5045844;28;20490;-82
2022/08/28 08:05:39;;;;;;;22.05;12.02;;;;;;;;;;5037214;28;20025;-82
2022/08/28 08:08:04;;;;;;;17.80;12.65;;;666.00;2432.00;;;;;;5042318;28;20024;-80
2022/08/28 08:10:30;;;;;;;17.98;11.60;;;665.90;2432.00;;;;;;5039888;28;20029;-81
2022/08/28 08:12:56;;;;;;;17.73;11.88;;;666.20;2432.00;;;;;;5039523;28;20029;-79
2022/08/28 08:15:22;;;;;;;20.60;12.10;;;;;;;;;;5044316;28;20071;-81
2022/08/28 08:17:48;;;;;;;15.25;11.00;;;;;;;;;;5044643;28;20094;-81
2022/08/28 08:20:15;;;;;;;20.38;12.02;;;;;;;;;;5045336;28;20029;-82
2022/08/28 08:22:41;;;;;;;15.75;11.45;;;;;;;;;;5047259;28;20449;-80
2022/08/28 08:25:07;;;;;;;17.40;11.25;;;;;;;;;;5044335;28;20370;-82
2022/08/28 08:27:34;;;;;;;16.58;10.90;;;;;;;;;;5047178;28;20184;-81
2022/08/28 08:30:00;;;;;;;19.15;10.30;;;;;;;;;;5043757;28;20021;-82
2022/08/28 08:32:26;;;;;;;19.05;10.60;;;;;;;;;;5049715;28;20029;-82
2022/08/28 08:34:58;;;;;;;18.30;10.02;;;691.60;2432.00;;;;;;5040560;28;20041;-82
2022/08/28 08:37:23;;;;;;;17.37;10.37;;;691.60;2432.00;;;;;;5038928;28;20026;-81
2022/08/28 08:39:49;;;;;;;15.50;10.30;;;691.30;2432.00;;;;;;5041688;28;20319;-81
2022/08/28 08:42:27;;;;;;;15.07;10.25;;;;;;;;;;5045873;28;20174;-80
2022/08/28 08:44:54;;;;;;;19.83;10.48;;;;;;;;;;5043431;28;20161;-82
2022/08/28 08:47:29;;;;;;;20.30;10.65;;;;;;;;;;5048749;28;20028;-82
2022/08/28 08:49:59;;;;;;;18.60;11.02;;;692.00;2432.00;;;;;;5052028;28;20021;-82
2022/08/28 08:52:29;;;;;;;19.02;10.50;;;692.10;2432.00;;;;;;5050859;28;20031;-81
2022/08/28 08:55:31;;;;;;;19.40;11.35;;;716.80;2432.00;;;;;;5051631;28;20037;-83
2022/08/28 08:58:15;;;;;;;17.33;11.27;;;717.10;2432.00;;;;;;5050741;28;20029;-81
2022/08/28 09:00:59;;;;;;;20.63;12.55;;;717.10;2432.00;;;;;;5043572;28;20112;-82
2022/08/28 09:03:52;;;;;;;15.95;11.18;;;717.20;2432.00;;;;;;5045984;28;20017;-82
2022/08/28 09:06:42;;;;;;;20.65;11.00;;;717.30;2432.00;;;;;;5051169;28;20025;-81
2022/08/28 09:09:30;;;;;;;19.80;10.98;;;717.40;2432.00;;;;;;5048021;28;20475;-84
2022/08/28 09:12:03;;;;;;;17.80;10.88;;;717.70;2432.00;;;;;;5048327;28;20117;-81
2022/08/28 09:14:40;;;;;;;21.63;10.88;;;717.60;2432.00;;;;;;5072638;28;20021;-84
2022/08/28 09:17:07;;;;;;;15.88;9.55;;;717.20;2432.00;;;;;;5075519;28;20029;-84
2022/08/28 09:19:33;;;;;;;16.08;8.93;;;717.70;2432.00;;;;;;5049070;28;20033;-84
2022/08/28 09:21:59;;;;;;;12.18;9.63;;;717.70;2432.00;;;;;;5051096;28;20479;-82
2022/08/28 09:24:34;;;;;;;19.98;11.18;;;742.60;2432.00;;;;;;5049749;28;20075;-83
2022/08/28 09:27:20;;;;;;;22.00;11.48;;;742.50;2432.00;;;;;;5050555;28;20017;-83
2022/08/28 09:29:56;;;;;;;20.00;12.25;;;742.80;2432.00;;;;;;5047049;28;20053;-82
2022/08/28 09:32:31;;;;;;;13.95;9.82;;;743.00;2432.00;;;;;;5049821;28;20105;-83
2022/08/28 09:34:59;;;;;;;18.27;9.60;;;743.00;2432.00;;;;;;5051994;28;20045;-83
2022/08/28 09:37:26;;;;;;;13.35;9.43;;;743.10;2432.00;;;;;;5047910;28;20517;-83
2022/08/28 09:40:14;;;;;;;14.55;10.43;;;742.90;2432.00;;;;;;5046236;28;20033;-85
2022/08/28 09:45:32;;;;;;;;;;;743.10;2432.00;;;;;;5046092;28;20123;-83
2022/08/28 09:47:58;;;;;;;19.40;9.45;;;768.00;2432.00;;;;;;5043539;28;20005;-83
2022/08/28 09:50:36;;;;;;;18.40;9.65;;;743.20;2432.00;;;;;;5044439;28;20079;-82
2022/08/28 09:53:08;;;;;;;19.13;9.93;;;;;;;;;;5042107;28;20089;-82
2022/08/28 09:55:55;;;;;;;15.57;9.20;;;768.30;2432.00;;;;;;5047342;28;20475;-82
2022/08/28 09:58:23;;;;;;;15.60;9.13;;;768.40;2432.00;;;;;;5042456;28;20074;-83
2022/08/28 10:01:09;;;;;;;19.27;9.25;;;768.30;2432.00;;;;;;5045817;28;20540;-83
2022/08/28 10:03:50;;;;;;;17.42;10.00;;;768.40;2432.00;;;;;;5041771;28;20033;-82
2022/08/28 10:06:31;;;;;;;15.52;9.57;;;768.60;2432.00;;;;;;5042285;28;21005;-83
2022/08/28 10:08:57;;;;;;;12.10;8.95;;;;;;;;;;5037656;28;20111;-86
2022/08/28 10:11:35;;;;;;;16.33;9.48;;;794.00;2432.00;;;;;;5045146;28;20025;-83
2022/08/28 10:14:24;;;;;;;19.92;11.20;;;793.90;2380.80;;;;;;5049651;28;20060;-84
2022/08/28 10:17:00;;;;;;;21.90;10.20;;;;;;;;;;5053594;28;20044;-84
2022/08/28 10:19:44;;;;;;;19.58;10.68;;;794.50;2355.20;;;;;;5045344;28;20021;-83
2022/08/28 10:22:25;;;;;;;15.38;9.88;;;794.50;2355.20;;;;;;5043532;28;20032;-85
2022/08/28 10:24:51;;;;;;;17.92;8.95;;;819.30;2304.00;;;;;;5042433;28;20426;-85
2022/08/28 10:27:35;;;;;;;19.25;10.60;;;819.30;2278.40;;;;;;5041774;28;20140;-85
2022/08/28 10:30:09;;;;;;;18.88;9.10;;;819.60;2278.40;;;;;;5033691;28;20124;-85
2022/08/28 10:32:56;;;;;;;19.50;9.65;;;819.80;2252.80;;;;;;5040508;28;20512;-84
2022/08/28 10:35:47;;;;;;;12.30;10.00;;;820.00;2252.80;;;;;;5039238;28;20049;-84
2022/08/28 10:38:17;;;;;;;14.65;9.18;;;;;;;;;;5043759;28;20049;-85
2022/08/28 10:40:53;;;;;;;13.35;9.20;;;;;;;;;;5047615;28;20025;-83
2022/08/28 10:43:22;;;;;;;15.57;9.38;;;845.30;2176.00;;;;;;5040172;28;20022;-84
2022/08/28 10:45:53;;;;;;;15.88;9.40;;;845.30;2124.80;;;;;;5044124;28;20933;-80
2022/08/28 10:48:26;;;;;;;16.60;8.60;;;845.60;2150.40;;;;;;5038638;28;20029;-80
2022/08/28 10:51:01;;;;;;;13.75;8.93;;;845.70;2124.80;;;;;;5045318;28;20416;-78
2022/08/28 10:53:41;;;;;;;15.55;7.72;;;845.60;2048.00;;;;;;5048513;28;20029;-79
2022/08/28 10:56:16;;;;;;;13.90;8.45;;;845.60;2150.40;;;;;;5040518;28;20482;-78
2022/08/28 10:58:43;;;;;;;16.92;8.05;;;845.60;2124.80;;;;;;5033112;28;20026;-79
2022/08/28 11:01:24;;;;;;;15.68;8.32;;;845.20;2176.00;;;;;;5035862;28;20021;-79
2022/08/28 11:03:51;;;;;;;18.25;10.75;;;845.20;2201.60;;;;;;5037829;28;20494;-80
2022/08/28 11:06:35;;;;;;;20.90;9.20;;;845.60;2227.20;;;;;;5064433;28;20041;-78
2022/08/28 11:09:24;;;;;;;23.45;9.85;;;870.50;2201.60;;;;;;5029925;28;20053;-79
2022/08/28 11:11:56;;;;;;;17.75;8.57;;;870.50;2124.80;;;;;;5044512;28;20102;-81
2022/08/28 11:14:24;;;;;;;13.95;8.10;;;;;;;;;;5036311;28;20029;-80
2022/08/28 11:16:51;;;;;;;15.30;8.05;;;;;;;;;;5034571;28;20021;-81
2022/08/28 11:19:47;;;;;;;14.13;9.20;;;870.60;2048.00;;;;;;5034539;28;20475;-80
2022/08/28 11:22:20;;;;;;;12.95;8.05;;;870.50;2073.60;;;;;;5035947;28;20021;-78
2022/08/28 11:25:11;;;;;;;15.75;8.73;;;870.70;2073.60;;;;;;5033976;28;20025;-79
2022/08/28 11:27:38;;;;;;;12.75;8.07;;;870.60;2048.00;;;;;;5032272;28;20029;-80
2022/08/28 11:30:07;;;;;;;17.17;8.70;;;870.90;2124.80;;;;;;5035584;28;20371;-81
2022/08/28 11:32:33;;;;;;;18.85;8.88;;;871.00;2048.00;;;;;;5041177;28;20064;-81
2022/08/28 11:35:06;;;;;;;10.43;7.93;;;870.90;2022.40;;;;;;5039530;28;20068;-81
2022/08/28 11:37:43;;;;;;;18.40;12.45;;;870.90;1996.80;;;;;;5036139;28;20040;-80
2022/08/28 11:40:20;;;;;;;18.65;11.10;;;871.10;2022.40;;;;;;5031953;28;20061;-78
2022/08/28 11:42:49;;;;;;;14.75;9.50;;;896.00;2022.40;;;;;;5036611;28;20083;-81
2022/08/28 11:45:38;;;;;;;15.52;8.95;;;896.20;1971.20;;;;;;5037838;28;20029;-80
2022/08/28 11:48:03;;;;;;;16.52;8.90;;;896.20;1971.20;;;;;;5041376;28;20079;-80
2022/08/28 11:50:32;;;;;;;16.35;8.20;;;896.30;1971.20;;;;;;5044749;28;20497;-81
2022/08/28 11:53:01;;;;;;;14.82;7.50;;;896.50;1894.40;;;;;;5036585;28;20033;-81
2022/08/28 11:55:49;;;;;;;13.13;7.90;;;896.70;1945.60;;;;;;5033434;28;20056;-81
2022/08/28 11:58:25;;;;;;;19.42;7.13;;;896.90;1920.00;;;;;;5032752;28;20029;-82
2022/08/28 12:00:57;;;;;;;15.75;7.47;;;896.90;1894.40;;;;;;5035934;28;20036;-82
2022/08/28 12:03:30;;;;;;;;;;;921.70;1894.40;;;;;;5039917;28;20041;-80
2022/08/28 12:05:57;;;;;;;14.15;8.73;;;921.70;1920.00;;;;;;5032042;28;19909;-81
2022/08/28 12:08:57;;;;;;;15.20;7.47;;;921.70;1894.40;;;;;;5040413;28;20056;-80
2022/08/28 12:11:38;;;;;;;17.23;10.00;;;921.70;1868.80;;;;;;5030936;28;20053;-80
2022/08/28 12:14:27;;;;;;;15.68;8.82;;;922.00;1894.40;;;;;;5035999;28;20108;-79
2022/08/28 12:17:15;;;;;;;18.55;7.88;;;921.80;1868.80;;;;;;5039952;28;20493;-80
2022/08/28 12:19:46;;;;;;;13.30;7.15;;;922.00;1868.80;;;;;;5071187;28;20027;-79
2022/08/28 12:22:16;;;;;;;16.92;6.88;;;896.90;1792.00;;;;;;5039044;28;20124;-81
2022/08/28 12:25:02;;;;;;;22.23;7.32;;;896.40;1817.60;;;;;;5044887;28;20029;-81
2022/08/28 12:27:30;;;;;;;14.52;6.55;;;896.50;1792.00;;;;;;5041602;28;20018;-81
2022/08/28 12:29:59;;;;;;;16.45;7.35;;;896.60;1843.20;;;;;;5044833;28;20079;-79
2022/08/28 12:32:50;;;;;;;13.82;6.80;;;896.60;1792.00;;;;;;5043805;28;20120;-81
2022/08/28 12:35:26;;;;;;;14.13;7.17;;;922.00;1843.20;;;;;;5035737;28;20045;-82
2022/08/28 12:37:52;;;;;;;15.38;9.15;;;896.90;1792.00;;;;;;5036798;28;20152;-82
2022/08/28 12:40:20;;;;;;;11.45;6.88;;;922.00;1843.20;;;;;;5043763;28;20111;-82
2022/08/28 12:42:59;;;;;;;15.85;7.20;;;921.90;1792.00;;;;;;5051537;28;20033;-81
2022/08/28 12:46:00;;;;;;;15.57;6.72;;;921.90;1843.20;;;;;;5054053;28;20020;-81
2022/08/28 12:48:32;;;;;;;14.65;7.20;;;896.90;1766.40;;;;;;5051710;28;20025;-80
2022/08/28 12:51:12;;;;;;;13.48;7.68;;;921.80;1792.00;;;;;;5037784;28;20029;-81
2022/08/28 12:53:47;;;;;;;11.43;7.47;;;921.90;1792.00;;;;;;5070652;28;20470;-80